Airfield :
LOGIN :

Register | Disclaimer

   EN    FR    IT 

 










Legend :    VFR   Marginal VFR   IFR   Intensive IFR   Very Intensive IFR
Visi :
Ceiling :
>= 8 km
>= 3000ft
5 to 8 km
1000 to 3000 ft
1500m to 5 km
500 to 1000 ft
800 to 1500m
200 to 500 ft
< 800m
< 200 ft
Symbols :   Thunderstorms  Fog  Heavy snow  Heavy precipitations  Wind > 20 kt
SIGMETs :     Misc.  Thunderstorms  Icing  Turbulence  Mountain Waves  Volcanic Ashes







- Airport Elevation : 266 ft
- IATA code : NCL
- Download approach charts


EGNT - Newcastle

CURRENT METAR :
  • 231620Z 33007KT 8000 -RA SCT007 BKN025 15/15 Q1010

EXPIRED METARs :
  • 231550Z 33006KT 8000 -RA SCT010 BKN025 15/15 Q1010
  • 231520Z 30007KT 260V330 8000 -RA SCT008 BKN018 15/14 Q1010
  • 231450Z 28007KT 4000 -RA FEW006 BKN015 15/14 Q1010
  • 231420Z 29007KT 4000 -RA FEW015 BKN022 15/14 Q1010
  • 231350Z 30008KT 8000 -RA FEW015 BKN034 15/14 Q1010

TAF AMD TAF EGNT
Valid from the 23 at 15:00 until the 24 at 12:00 UTC


231458Z 2315/2412 30007KT 9999 SCT008 BKN015
BECMG 2315/2317 BKN008
TEMPO 2315/2322 3000 RA BR BKN004
BECMG 2317/2320 36013KT
PROB40
TEMPO 2318/2412 34016G26KT
PROB40 2322/2409 6000 BKN004
ATIS : +44 191 214 3400
No reported NOTAMs for that airfield.



MET'MAP, your aeronautical weather chart ! - Copyright ORBIFLY December 2007 - Disclaimer

ORBIFLY MET'MAP TEAM :

Programming & Development : Alexandra Zaïnal
Concept & Development : Baudouin d'Aumeries
Co-Development & Prog : Marc-Olivier Méhu
Technical & hardware support : Manuel Goepfert

Contact : metmap@orbifly.com




SOURCES & CREDITS :

   NOAA